»·PEaware :: UAL1221 KSFO-KLAS

UAL1221 :: KSFO-KLAS

FLIGHT INFORMATION

Flight Status: Arrived
Operator:
United Airlines
More flights by this operator :: More flights under this callsign
Pilot: Manny R. (10936)
Aircraft: BOEING 737-800
(B738)
More flights by this aircraft type
Origin: KSFO San Francisco Intl
United States
Destination: KLAS McCarran Intl
United States
More flights between these airports :: More routes between these airports
Route: +SSTIK3 NTELL Q162 ESSAA BTY SUNST4
File this flight plan on PilotEdge
Remarks:
Altitude:
(Current/Filed)
37,000ft
Speed:
(Current/Filed)
461kts
Departed: 14-Apr-18 08:31 PM
Arrived: 14-Apr-18 09:52 PM
Distance/Time
Traveled:
359nm/1:21
Distance/Time
To Go:
Arrived

Flight Plot

Page will automatically refresh every two minutes.

Flight plan parsing failed; only flown route is shown


Map Options




Map Legend


Flown Route
Filed Route
Departure Airport
Arrival Airport
Navaid (VOR, NDB)
Fix

Horizontal Profiles

Position Reports

Time Latitude Longitude Heading Altitude Ground
Speed
14-Apr-18 20:01 37.619754 -122.384004 213 20ft 0kts
14-Apr-18 20:02 37.619754 -122.384004 213 20ft 0kts
14-Apr-18 20:03 37.619754 -122.384004 213 20ft 0kts
14-Apr-18 20:04 37.619754 -122.384004 213 20ft 0kts
14-Apr-18 20:05 37.619754 -122.384004 213 20ft 0kts
14-Apr-18 20:06 37.619754 -122.384004 213 20ft 0kts
14-Apr-18 20:07 37.619754 -122.384004 213 20ft 0kts
14-Apr-18 20:08 37.619754 -122.384004 213 20ft 0kts
14-Apr-18 20:09 37.619754 -122.384004 213 20ft 0kts
14-Apr-18 20:10 37.619754 -122.384004 213 20ft 0kts
14-Apr-18 20:11 37.619754 -122.384004 213 20ft 0kts
14-Apr-18 20:12 37.619754 -122.384004 213 20ft 0kts
14-Apr-18 20:13 37.619754 -122.384004 213 20ft 0kts
14-Apr-18 20:14 37.619754 -122.384004 213 20ft 0kts
14-Apr-18 20:15 37.619754 -122.384004 213 20ft 0kts
14-Apr-18 20:16 37.619754 -122.384004 213 20ft 0kts
14-Apr-18 20:17 37.619754 -122.384004 213 20ft 0kts
14-Apr-18 20:18 37.619754 -122.384004 213 20ft 0kts
14-Apr-18 20:19 37.619754 -122.384004 213 20ft 0kts
14-Apr-18 20:20 37.619754 -122.384003 213 20ft 0kts
14-Apr-18 20:21 37.619843 -122.383928 213 20ft 2kts
14-Apr-18 20:22 37.620279 -122.383669 163 20ft 2kts
14-Apr-18 20:23 37.620450 -122.383874 118 20ft 0kts
14-Apr-18 20:24 37.620450 -122.383874 118 20ft 0kts
14-Apr-18 20:25 37.620450 -122.383874 118 20ft 0kts
14-Apr-18 20:26 37.619102 -122.380786 119 20ft 30kts
14-Apr-18 20:27 37.610752 -122.383535 208 20ft 38kts
14-Apr-18 20:28 37.608552 -122.384065 119 20ft 0kts
14-Apr-18 20:29 37.608552 -122.384065 119 20ft 0kts
14-Apr-18 20:30 37.609908 -122.381617 28 20ft 50kts
14-Apr-18 20:31 37.642578 -122.361343 12 999ft 167kts
14-Apr-18 20:32 37.689617 -122.363058 331 2711ft 212kts
14-Apr-18 20:33 37.682763 -122.425836 198 4701ft 261kts
14-Apr-18 20:34 37.615365 -122.442881 191 7364ft 277kts
14-Apr-18 20:35 37.544687 -122.460731 191 9808ft 289kts
14-Apr-18 20:36 37.472365 -122.447036 140 11403ft 320kts
14-Apr-18 20:37 37.430744 -122.378066 124 13485ft 330kts
14-Apr-18 20:38 37.393435 -122.284541 95 15911ft 342kts
14-Apr-18 20:39 37.380329 -122.193373 103 17847ft 353kts
14-Apr-18 20:40 37.363449 -122.104441 103 19591ft 362kts
14-Apr-18 20:41 37.340497 -121.987511 103 21670ft 374kts
14-Apr-18 20:42 37.317754 -121.873326 104 23478ft 385kts
14-Apr-18 20:43 37.296768 -121.761997 96 25044ft 394kts
14-Apr-18 20:44 37.287917 -121.652695 95 26431ft 403kts
14-Apr-18 20:45 37.277745 -121.523511 95 27909ft 412kts
14-Apr-18 20:46 37.266960 -121.388488 95 29317ft 421kts
14-Apr-18 20:47 37.258566 -121.284722 96 30571ft 420kts
14-Apr-18 20:48 37.250195 -121.182366 96 31760ft 418kts
14-Apr-18 20:49 37.240730 -121.067930 96 32977ft 415kts
14-Apr-18 20:50 37.229918 -120.938857 96 34209ft 413kts
14-Apr-18 20:51 37.220769 -120.830938 96 35134ft 411kts
14-Apr-18 20:52 37.210389 -120.709909 96 36068ft 409kts
14-Apr-18 20:53 37.199903 -120.589108 96 36848ft 409kts
14-Apr-18 20:54 37.189159 -120.466814 96 37010ft 426kts
14-Apr-18 20:55 37.178620 -120.348247 96 37010ft 446kts
14-Apr-18 20:56 37.168368 -120.234191 96 37000ft 449kts
14-Apr-18 20:57 37.157791 -120.117813 96 37000ft 449kts
14-Apr-18 20:58 37.145723 -119.986564 96 37000ft 449kts
14-Apr-18 20:59 37.136657 -119.889017 96 37000ft 449kts
14-Apr-18 21:00 37.122685 -119.740374 96 37000ft 449kts
14-Apr-18 21:01 37.112264 -119.630811 96 37000ft 449kts
14-Apr-18 21:02 37.099332 -119.496347 96 37000ft 449kts
14-Apr-18 21:03 37.085410 -119.353364 96 37000ft 449kts
14-Apr-18 21:04 37.075748 -119.255177 97 36999ft 449kts
14-Apr-18 21:05 37.061709 -119.114011 97 37000ft 449kts
14-Apr-18 21:06 37.047514 -118.973003 97 37000ft 449kts
14-Apr-18 21:07 37.033844 -118.838803 97 37000ft 449kts
14-Apr-18 21:08 37.019026 -118.695029 97 37000ft 449kts
14-Apr-18 21:09 37.004419 -118.554978 97 37000ft 449kts
14-Apr-18 21:10 36.990421 -118.422274 97 37000ft 449kts
14-Apr-18 21:11 36.978216 -118.307729 97 37000ft 449kts
14-Apr-18 21:12 36.963169 -118.167964 97 37000ft 449kts
14-Apr-18 21:13 36.949331 -118.040802 97 37000ft 449kts
14-Apr-18 21:14 36.935464 -117.914658 97 37000ft 449kts
14-Apr-18 21:15 36.919288 -117.769062 97 37000ft 449kts
14-Apr-18 21:16 36.903588 -117.629327 97 36999ft 448kts
14-Apr-18 21:17 36.889599 -117.506070 97 36233ft 439kts
14-Apr-18 21:18 36.874300 -117.372594 97 33902ft 441kts
14-Apr-18 21:19 36.862546 -117.270944 98 31962ft 437kts
14-Apr-18 21:20 36.848269 -117.148521 98 30054ft 435kts
14-Apr-18 21:21 36.831176 -117.003416 98 27956ft 445kts
14-Apr-18 21:22 36.813925 -116.858523 98 25679ft 430kts
14-Apr-18 21:23 36.785969 -116.726906 125 24116ft 417kts
14-Apr-18 21:24 36.721147 -116.632142 131 24008ft 419kts
14-Apr-18 21:25 36.652186 -116.534418 131 24000ft 419kts
14-Apr-18 21:26 36.583625 -116.437396 131 23998ft 398kts
14-Apr-18 21:27 36.520943 -116.348872 131 23999ft 398kts
14-Apr-18 21:28 36.459968 -116.262940 131 23997ft 398kts
14-Apr-18 21:29 36.388359 -116.162267 131 21736ft 394kts
14-Apr-18 21:30 36.320827 -116.067579 131 19656ft 377kts
14-Apr-18 21:31 36.258247 -115.980061 131 17730ft 362kts
14-Apr-18 21:32 36.201104 -115.898874 123 15933ft 350kts
14-Apr-18 21:33 36.168026 -115.802936 111 15750ft 316kts
14-Apr-18 21:34 36.138377 -115.709835 111 15753ft 315kts
14-Apr-18 21:35 36.109153 -115.618692 111 13480ft 308kts
14-Apr-18 21:36 36.081437 -115.532646 111 12344ft 293kts
14-Apr-18 21:37 36.055044 -115.451025 111 11557ft 287kts
14-Apr-18 21:38 36.030066 -115.373762 108 10845ft 265kts
14-Apr-18 21:39 36.023302 -115.299950 94 9972ft 264kts
14-Apr-18 21:40 36.018427 -115.222181 94 9023ft 261kts
14-Apr-18 21:41 36.013055 -115.138911 94 7936ft 259kts
14-Apr-18 21:42 36.008268 -115.064039 94 6994ft 256kts
14-Apr-18 21:43 36.003653 -114.983449 94 5813ft 236kts
14-Apr-18 21:44 35.999429 -114.911006 94 4846ft 208kts
14-Apr-18 21:45 36.031577 -114.873286 0 4871ft 204kts
14-Apr-18 21:46 36.083511 -114.879736 319 4847ft 204kts
14-Apr-18 21:47 36.081127 -114.940742 247 4850ft 204kts
14-Apr-18 21:48 36.074083 -115.003852 268 4081ft 207kts
14-Apr-18 21:49 36.073711 -115.067608 269 3084ft 170kts
14-Apr-18 21:50 36.073654 -115.119143 269 2233ft 150kts
14-Apr-18 21:51 36.074685 -115.145948 301 2119ft 20kts
14-Apr-18 21:52 36.075052 -115.146428 331 2119ft 0kts

Navigation Log

Ident Type
Flight plan parsing failed, navigation log unavailable